Terminal Aerodrome Forecast
Issued by NWS Boise, ID

Home | Current Version | Previous Version | Text Only | Print | Product List | Glossary On
Versions: 1 2 3 4 5 6 7 8 9 10 11 12 13 14 15 16 17 18 19 20 21 22 23 24 25 26 27 28 29 30 31 32 33 34 35 36
284
FTUS45 KBOI 091120
TAFBNO
TAF
KBNO 091120Z 0912/1012 VRB05KT P6SM OVC060
     FM091800 VRB05KT 4SM -SNRA BR OVC020
     FM092100 VRB05KT 3SM -SN BR OVC015=

USA.gov is the U.S. government's official web portal to all federal, state and local government web resources and services.